Time;durP1;ratioP1;P1;durP2;ratioP2;P2;SDS_P1;SDS_P2;PMS_P1;PMS_P2;Temp;Humidity;BMP_temperature;BMP_pressure;BME280_temperature;BME280_humidity;BME280_pressure;Samples;Min_cycle;Max_cycle;Signal;HPM_P1;HPM_P2
2022/02/20 00:01:11;;;;;;;24.05;11.27;;;;;;;7.77;46.35;94027.69;5063214;28;20021;-81
2022/02/20 00:03:37;;;;;;;25.80;12.68;;;;;;;7.74;46.23;94029.06;5063014;28;20247;-81
2022/02/20 00:06:03;;;;;;;28.92;11.57;;;;;;;7.77;46.19;94025.03;5062900;28;20020;-80
2022/02/20 00:08:28;;;;;;;29.25;13.57;;;;;;;7.79;45.29;94030.81;5062577;28;20021;-80
2022/02/20 00:10:54;;;;;;;37.67;14.88;;;;;;;7.75;45.38;94035.13;5062877;28;20044;-81
2022/02/20 00:13:19;;;;;;;37.10;12.98;;;;;;;7.73;45.89;94030.13;5062167;28;20041;-80
2022/02/20 00:15:45;;;;;;;25.67;12.23;;;;;;;7.77;46.48;94036.41;5062067;28;20097;-81
2022/02/20 00:18:10;;;;;;;33.70;12.57;;;;;;;7.75;47.04;94025.31;5062143;28;20036;-81
2022/02/20 00:20:36;;;;;;;26.45;11.82;;;;;;;7.70;47.06;94008.72;5062046;28;20028;-81
2022/02/20 00:23:03;;;;;;;31.80;12.32;;;;;;;7.66;45.47;94013.03;5061787;28;20027;-81
2022/02/20 00:25:34;;;;;;;28.20;12.73;;;;;;;7.66;46.50;94000.53;5061812;28;20092;-79
2022/02/20 00:28:02;;;;;;;28.58;11.95;;;;;;;7.67;47.09;94012.72;5060392;28;20039;-81
2022/02/20 00:30:28;;;;;;;40.95;13.30;;;;;;;7.69;46.44;94005.25;5062090;28;20021;-80
2022/02/20 00:32:58;;;;;;;43.63;16.90;;;;;;;7.66;45.82;94005.84;5061799;28;20064;-80
2022/02/20 00:35:27;;;;;;;40.05;14.65;;;;;;;7.66;45.86;94002.41;5061774;28;20031;-81
2022/02/20 00:37:53;;;;;;;31.10;12.50;;;;;;;7.60;46.43;94001.69;5061520;28;20032;-81
2022/02/20 00:40:19;;;;;;;27.85;10.68;;;;;;;7.60;46.42;93996.41;5061594;28;20222;-81
2022/02/20 00:42:44;;;;;;;26.90;11.05;;;;;;;7.66;46.67;93997.09;5061890;28;20021;-83
2022/02/20 00:45:10;;;;;;;31.55;11.27;;;;;;;7.58;47.20;94007.28;5061706;28;20377;-83
2022/02/20 00:47:35;;;;;;;27.63;11.18;;;;;;;7.56;47.67;94009.44;5061452;28;20327;-83
2022/02/20 00:50:01;;;;;;;25.92;10.48;;;;;;;7.58;47.69;94009.16;5061822;28;20065;-82
2022/02/20 00:52:26;;;;;;;22.83;8.73;;;;;;;7.60;47.80;93996.41;5061514;28;20196;-82
2022/02/20 00:54:52;;;;;;;24.75;8.57;;;;;;;7.58;47.27;93995.91;5060232;28;20029;-82
2022/02/20 00:57:17;;;;;;;19.77;7.35;;;;;;;7.56;47.09;94003.34;5061712;28;20024;-83
2022/02/20 00:59:43;;;;;;;23.48;9.13;;;;;;;7.58;46.05;93995.91;5060875;28;20191;-83
2022/02/20 01:02:08;;;;;;;21.65;10.00;;;;;;;7.62;45.76;93983.63;5061023;28;20251;-82
2022/02/20 01:04:34;;;;;;;22.60;8.85;;;;;;;7.65;46.39;93985.69;5061620;28;20047;-81
2022/02/20 01:06:59;;;;;;;23.98;8.38;;;;;;;7.70;46.60;94003.41;5061401;28;20055;-82
2022/02/20 01:09:25;;;;;;;29.70;8.80;;;;;;;7.74;46.37;93999.88;5061331;28;20027;-81
2022/02/20 01:11:50;;;;;;;20.30;9.43;;;;;;;7.74;45.10;94004.41;5004056;28;1646784;-81
2022/02/20 01:14:16;;;;;;;21.17;9.27;;;;;;;7.72;44.74;94004.69;5062140;28;20025;-81
2022/02/20 01:16:41;;;;;;;34.38;11.77;;;;;;;7.70;44.70;94011.38;5062097;28;20326;-81
2022/02/20 01:19:07;;;;;;;26.90;10.35;;;;;;;7.71;44.89;94010.28;5062184;28;20058;-82
2022/02/20 01:21:32;;;;;;;21.23;8.95;;;;;;;7.80;44.90;94013.84;5062053;28;20021;-83
2022/02/20 01:23:58;;;;;;;20.65;9.30;;;;;;;7.79;44.86;94013.03;5062174;28;20079;-82
2022/02/20 01:26:23;;;;;;;22.40;9.10;;;;;;;7.82;44.81;94023.09;5062005;28;20079;-83
2022/02/20 01:28:49;;;;;;;30.48;10.02;;;;;;;7.87;44.80;94024.06;5061905;28;20028;-82
2022/02/20 01:31:14;;;;;;;18.05;8.38;;;;;;;7.86;44.55;94025.13;5062006;28;20092;-82
2022/02/20 01:33:40;;;;;;;26.88;10.23;;;;;;;7.88;44.55;94021.13;5061948;28;20032;-83
2022/02/20 01:36:05;;;;;;;25.92;9.30;;;;;;;7.89;45.23;94014.72;5062020;28;20025;-83
2022/02/20 01:38:31;;;;;;;31.95;9.55;;;;;;;7.89;45.08;93998.03;5060932;28;20040;-80
2022/02/20 01:40:57;;;;;;;23.90;9.38;;;;;;;7.91;45.25;94004.63;5061870;28;20254;-80
2022/02/20 01:43:24;;;;;;;22.15;8.98;;;;;;;7.95;45.38;94005.59;5061885;28;20025;-80
2022/02/20 01:45:49;;;;;;;18.27;8.38;;;;;;;8.01;44.92;94003.66;5061778;28;20311;-84
2022/02/20 01:48:15;;;;;;;25.15;7.95;;;;;;;7.97;45.87;94005.31;5062056;28;20028;-84
2022/02/20 01:50:42;;;;;;;18.52;7.90;;;;;;;7.92;45.83;94002.78;5061845;28;20055;-83
2022/02/20 01:53:08;;;;;;;20.42;8.23;;;;;;;7.91;46.41;93999.31;5061711;28;20364;-83
2022/02/20 01:55:34;;;;;;;19.50;8.88;;;;;;;7.96;45.95;94007.19;5061893;28;20048;-84
2022/02/20 01:57:59;;;;;;;18.00;7.63;;;;;;;8.00;45.92;93994.13;5061824;28;20021;-83
2022/02/20 02:00:25;;;;;;;19.45;7.53;;;;;;;7.95;45.82;93991.56;5062100;28;20030;-83
2022/02/20 02:02:50;;;;;;;18.92;7.60;;;;;;;7.99;46.37;93982.69;5061881;28;20021;-83
2022/02/20 02:05:16;;;;;;;19.50;8.00;;;;;;;7.96;46.99;93985.19;5062064;28;20066;-83
2022/02/20 02:07:42;;;;;;;17.08;7.57;;;;;;;7.96;46.08;93971.91;5061765;28;20025;-83
2022/02/20 02:10:08;;;;;;;16.65;7.72;;;;;;;7.93;46.02;93970.59;5061678;28;20055;-82
2022/02/20 02:12:35;;;;;;;20.60;7.88;;;;;;;7.92;45.76;93968.28;5063635;28;20053;-83
2022/02/20 02:15:02;;;;;;;17.55;7.60;;;;;;;7.89;46.33;93972.28;5063997;28;20024;-83
2022/02/20 02:17:29;;;;;;;20.13;7.20;;;;;;;7.89;47.64;93964.31;5065012;28;20338;-83
2022/02/20 02:19:54;;;;;;;22.88;9.43;;;;;;;7.84;47.21;93959.88;5063978;28;20024;-83
2022/02/20 02:22:28;;;;;;;29.30;10.85;;;;;;;7.80;46.68;93963.44;5064812;28;20096;-83
2022/02/20 02:24:56;;;;;;;28.55;9.05;;;;;;;7.76;47.05;93960.56;5065156;28;20338;-83
2022/02/20 02:27:22;;;;;;;21.95;8.07;;;;;;;7.74;47.30;93957.41;5064800;28;20092;-83
2022/02/20 02:29:48;;;;;;;20.88;7.55;;;;;;;7.76;47.30;93954.47;5065099;28;20258;-81
2022/02/20 02:32:15;;;;;;;20.00;7.05;;;;;;;7.76;47.29;93936.69;5064981;28;20036;-77
2022/02/20 02:34:42;;;;;;;17.30;7.90;;;;;;;7.72;47.46;93938.34;5064647;28;20040;-77
2022/02/20 02:37:07;;;;;;;47.75;12.50;;;;;;;7.69;47.86;93923.00;5064892;28;20021;-78
2022/02/20 02:39:33;;;;;;;18.08;8.20;;;;;;;7.69;48.60;93930.97;5064895;28;20116;-78
2022/02/20 02:42:05;;;;;;;25.05;11.40;;;;;;;7.61;48.49;93950.22;5064835;28;20052;-77
2022/02/20 02:44:30;;;;;;;29.02;11.15;;;;;;;7.59;47.83;93955.00;5063721;28;20276;-77
2022/02/20 02:46:56;;;;;;;21.63;8.60;;;;;;;7.51;47.27;93948.53;5064401;28;20033;-78
2022/02/20 02:49:22;;;;;;;24.95;8.60;;;;;;;7.47;47.27;93941.44;5064500;28;20028;-78
2022/02/20 02:51:47;;;;;;;25.40;9.90;;;;;;;7.49;47.91;93929.47;5064750;28;20227;-78
2022/02/20 02:54:17;;;;;;;29.80;10.98;;;;;;;7.47;48.49;93930.81;5064424;28;20248;-81
2022/02/20 02:56:46;;;;;;;34.75;13.13;;;;;;;7.44;48.94;93943.59;5064492;28;20021;-81
2022/02/20 02:59:12;;;;;;;32.65;12.48;;;;;;;7.41;48.45;93946.06;5064150;28;20200;-81
2022/02/20 03:01:38;;;;;;;32.72;11.05;;;;;;;7.28;48.84;93934.31;5064150;28;20051;-83
2022/02/20 03:04:04;;;;;;;23.77;10.18;;;;;;;7.29;49.05;93943.84;5064341;28;20096;-80
2022/02/20 03:06:30;;;;;;;36.25;11.30;;;;;;;7.28;49.78;93938.84;5064177;28;20079;-79
2022/02/20 03:08:55;;;;;;;33.90;11.02;;;;;;;7.27;49.62;93929.31;5064028;28;20062;-80
2022/02/20 03:11:21;;;;;;;25.70;10.73;;;;;;;7.22;49.74;93928.31;5063985;28;20327;-79
2022/02/20 03:13:47;;;;;;;25.25;11.00;;;;;;;7.19;49.41;93918.28;5064179;28;20024;-79
2022/02/20 03:16:12;;;;;;;26.83;10.30;;;;;;;7.22;49.38;93920.38;5063840;28;20031;-79
2022/02/20 03:18:38;;;;;;;23.42;10.65;;;;;;;7.23;49.16;93921.16;5063766;28;20036;-79
2022/02/20 03:21:06;;;;;;;25.77;9.85;;;;;;;7.31;48.84;93933.75;5063845;28;20029;-79
2022/02/20 03:23:32;;;;;;;24.70;10.73;;;;;;;7.30;49.14;93921.56;5062881;28;20049;-79
2022/02/20 03:25:58;;;;;;;27.17;11.50;;;;;;;7.33;49.52;93928.16;5063674;28;20108;-79
2022/02/20 03:28:23;;;;;;;22.63;10.38;;;;;;;7.33;49.55;93936.88;5063421;28;20017;-82
2022/02/20 03:30:49;;;;;;;28.33;10.68;;;;;;;7.33;49.40;93931.59;5064001;28;20025;-80
2022/02/20 03:33:15;;;;;;;28.70;10.50;;;;;;;7.35;49.05;93920.69;5063807;28;20035;-80
2022/02/20 03:35:41;;;;;;;31.73;12.27;;;;;;;7.41;50.11;93912.34;5063604;28;20033;-80
2022/02/20 03:38:07;;;;;;;33.28;11.52;;;;;;;7.42;49.69;93913.13;5063786;28;20024;-80
2022/02/20 03:40:33;;;;;;;32.92;12.95;;;;;;;7.40;49.45;93907.34;5063414;28;20024;-80
2022/02/20 03:42:59;;;;;;;32.42;12.35;;;;;;;7.38;49.87;93922.75;5063447;28;20020;-80
2022/02/20 03:45:26;;;;;;;39.08;13.23;;;;;;;7.32;49.92;93919.41;5063312;28;20075;-80
2022/02/20 03:47:52;;;;;;;31.75;12.40;;;;;;;7.34;50.33;93919.09;5062026;28;20025;-79
2022/02/20 03:50:18;;;;;;;30.95;13.05;;;;;;;7.33;50.20;93939.53;5063398;28;20048;-79
2022/02/20 03:52:44;;;;;;;26.15;11.63;;;;;;;7.23;49.66;93937.06;5063102;28;20075;-79
2022/02/20 03:55:10;;;;;;;31.17;9.55;;;;;;;7.12;49.87;93956.84;5063113;28;20032;-79
2022/02/20 03:57:36;;;;;;;24.60;9.68;;;;;;;6.91;50.20;93961.66;5063250;28;20021;-80
2022/02/20 04:00:14;;;;;;;24.05;9.55;;;;;;;6.76;51.04;93970.63;5063150;28;20100;-79
2022/02/20 04:02:40;;;;;;;17.85;8.57;;;;;;;6.50;51.14;93978.88;5063242;28;20068;-80
2022/02/20 04:05:10;;;;;;;20.75;9.50;;;;;;;6.36;51.16;93993.88;5063193;28;20016;-79
2022/02/20 04:07:36;;;;;;;23.70;10.35;;;;;;;6.18;51.70;94003.34;5062729;28;20039;-81
2022/02/20 04:10:04;;;;;;;19.83;9.15;;;;;;;6.12;51.87;93996.53;5061827;28;20096;-79
2022/02/20 04:12:30;;;;;;;34.38;11.95;;;;;;;6.07;52.33;93981.50;5062712;28;20036;-79
2022/02/20 04:14:56;;;;;;;32.42;11.30;;;;;;;6.08;52.70;93987.56;5062972;28;20032;-79
2022/02/20 04:17:22;;;;;;;31.95;13.52;;;;;;;6.03;52.94;94002.44;5062816;28;20292;-80
2022/02/20 04:19:48;;;;;;;26.27;12.10;;;;;;;5.99;53.32;94008.56;5062848;28;20023;-80
2022/02/20 04:22:14;;;;;;;30.33;11.90;;;;;;;5.97;53.40;94018.66;5062690;28;20021;-78
2022/02/20 04:24:40;;;;;;;32.53;12.43;;;;;;;6.01;53.25;94030.25;5062697;28;20025;-77
2022/02/20 04:27:06;;;;;;;32.22;13.15;;;;;;;6.12;52.93;94034.34;5062592;28;20215;-77
2022/02/20 04:29:31;;;;;;;23.10;10.35;;;;;;;6.19;52.39;94039.34;5062628;28;20021;-77
2022/02/20 04:31:57;;;;;;;36.60;11.98;;;;;;;6.19;52.31;94045.41;5062550;28;20017;-77
2022/02/20 04:34:22;;;;;;;33.20;11.85;;;;;;;6.27;52.00;94053.78;5061135;28;20020;-77
2022/02/20 04:36:48;;;;;;;35.38;12.82;;;;;;;6.33;51.69;94047.38;5062489;28;20066;-77
2022/02/20 04:39:13;;;;;;;23.83;10.00;;;;;;;6.39;51.73;94051.53;5062450;28;20295;-77
2022/02/20 04:41:39;;;;;;;23.77;11.45;;;;;;;6.47;51.48;94047.50;5062400;28;20323;-77
2022/02/20 04:44:04;;;;;;;32.72;11.20;;;;;;;6.58;51.17;94054.25;5062328;28;20146;-79
2022/02/20 04:46:33;;;;;;;25.15;11.15;;;;;;;6.63;50.80;94062.94;5062336;28;20330;-79
2022/02/20 04:48:59;;;;;;;27.08;10.73;;;;;;;6.67;50.38;94067.66;5062047;28;20040;-79
2022/02/20 04:51:25;;;;;;;26.70;10.48;;;;;;;6.75;50.14;94067.03;5062443;28;20017;-79
2022/02/20 04:53:50;;;;;;;25.23;10.75;;;;;;;6.79;51.12;94070.69;5062257;28;20013;-79
2022/02/20 04:56:16;;;;;;;21.83;10.88;;;;;;;6.82;51.56;94070.94;5062079;28;20047;-79
2022/02/20 04:58:41;;;;;;;27.20;11.38;;;;;;;6.84;51.82;94062.69;5062112;28;20123;-79
2022/02/20 05:01:07;;;;;;;23.48;11.02;;;;;;;6.88;52.37;94069.00;5062069;28;20020;-79
2022/02/20 05:03:32;;;;;;;26.40;11.63;;;;;;;6.90;51.53;94064.22;5060875;28;20230;-79
2022/02/20 05:05:57;;;;;;;29.20;12.35;;;;;;;6.94;50.47;94069.72;5061833;28;20047;-78
2022/02/20 05:08:23;;;;;;;28.88;11.95;;;;;;;6.87;50.69;94054.16;5062332;28;20047;-79
2022/02/20 05:10:48;;;;;;;30.80;11.40;;;;;;;6.87;51.16;94054.16;5062180;28;20061;-78
2022/02/20 05:13:14;;;;;;;30.27;11.25;;;;;;;6.92;50.95;94048.00;5061466;28;20100;-81
2022/02/20 05:15:39;;;;;;;34.80;12.93;;;;;;;6.93;51.16;94047.72;5061862;28;20024;-81
2022/02/20 05:18:06;;;;;;;36.28;11.68;;;;;;;6.93;50.50;94053.03;5062088;28;20021;-82
2022/02/20 05:20:32;;;;;;;27.20;12.40;;;;;;;6.91;50.22;94051.75;5062050;28;20029;-81
2022/02/20 05:22:57;;;;;;;22.55;10.68;;;;;;;6.83;50.00;94045.22;5061846;28;20041;-80
2022/02/20 05:25:23;;;;;;;29.83;10.77;;;;;;;6.69;50.17;94068.16;5061763;28;20051;-79
2022/02/20 05:27:48;;;;;;;25.92;10.75;;;;;;;6.57;50.30;94077.31;5062055;28;20045;-80
2022/02/20 05:30:16;;;;;;;21.10;9.68;;;;;;;6.46;50.46;94067.91;5060649;28;20111;-80
2022/02/20 05:32:42;;;;;;;28.05;10.77;;;;;;;6.40;50.49;94076.97;5061936;28;20024;-79
2022/02/20 05:35:08;;;;;;;24.48;10.60;;;;;;;6.40;50.58;94080.38;5061885;28;20032;-79
2022/02/20 05:37:43;;;;;;;22.65;10.77;;;;;;;6.38;50.60;94087.03;5061882;28;20021;-79
2022/02/20 05:40:11;;;;;;;28.02;11.63;;;;;;;6.35;50.78;94082.28;5061797;28;20025;-79
2022/02/20 05:42:37;;;;;;;33.10;11.27;;;;;;;6.35;50.90;94084.94;5061895;28;20040;-80
2022/02/20 05:45:03;;;;;;;24.45;10.55;;;;;;;6.31;50.27;94081.28;5061800;28;20107;-79
2022/02/20 05:47:29;;;;;;;18.08;9.13;;;;;;;6.32;50.23;94083.66;5063864;28;20025;-79
2022/02/20 05:49:55;;;;;;;21.73;8.80;;;;;;;6.34;50.14;94089.47;5065641;28;20066;-79
2022/02/20 05:52:20;;;;;;;21.90;7.93;;;;;;;6.32;50.34;94090.81;5065730;28;20024;-79
2022/02/20 05:54:46;;;;;;;27.10;8.95;;;;;;;6.32;50.10;94101.41;5065370;28;20012;-80
2022/02/20 05:57:11;;;;;;;19.27;6.82;;;;;;;6.20;49.79;94094.63;5065677;28;20238;-80
2022/02/20 05:59:37;;;;;;;20.58;7.55;;;;;;;6.22;49.77;94091.69;5065355;28;20086;-80
2022/02/20 06:02:02;;;;;;;24.33;6.82;;;;;;;6.23;50.05;94095.94;5065424;28;20342;-81
2022/02/20 06:04:28;;;;;;;19.70;5.85;;;;;;;6.28;50.28;94101.16;5065262;28;20024;-81
2022/02/20 06:06:54;;;;;;;13.18;4.32;;;;;;;6.31;49.63;94081.28;5065456;28;20062;-81
2022/02/20 06:09:19;;;;;;;15.63;4.47;;;;;;;6.43;49.31;94079.84;5065431;28;20021;-80
2022/02/20 06:11:45;;;;;;;12.05;5.15;;;;;;;6.52;48.76;94064.13;5065020;28;20292;-79
2022/02/20 06:14:10;;;;;;;13.43;4.15;;;;;;;6.63;48.61;94072.72;5065105;28;20021;-79
2022/02/20 06:16:36;;;;;;;11.98;3.60;;;;;;;6.76;48.31;94066.75;5065097;28;20024;-79
2022/02/20 06:19:02;;;;;;;13.40;4.10;;;;;;;6.90;47.70;94050.97;5065077;28;20096;-79
2022/02/20 06:21:27;;;;;;;11.65;4.57;;;;;;;7.06;47.28;94058.69;5065040;28;20083;-79
2022/02/20 06:23:53;;;;;;;11.05;4.38;;;;;;;7.22;46.67;94060.06;5065184;28;20025;-79
2022/02/20 06:26:18;;;;;;;16.42;4.70;;;;;;;7.30;46.39;94069.25;5065085;28;20342;-79
2022/02/20 06:28:43;;;;;;;12.02;5.60;;;;;;;7.40;46.21;94074.41;5065042;28;20143;-78
2022/02/20 06:31:09;;;;;;;12.50;4.25;;;;;;;7.46;46.31;94078.56;5065359;28;20323;-78
2022/02/20 06:33:34;;;;;;;10.15;4.00;;;;;;;7.47;46.15;94074.03;5065113;28;20293;-78
2022/02/20 06:36:00;;;;;;;14.27;4.60;;;;;;;7.52;46.02;94069.44;5064932;28;20218;-77
2022/02/20 06:38:25;;;;;;;14.20;4.57;;;;;;;7.59;46.19;94066.44;5064892;28;20024;-77
2022/02/20 06:40:51;;;;;;;10.18;4.43;;;;;;;7.61;45.98;94072.22;5065204;28;20013;-78
2022/02/20 06:43:16;;;;;;;13.02;4.68;;;;;;;7.62;46.09;94071.16;5064823;28;20329;-77
2022/02/20 06:45:42;;;;;;;11.80;4.45;;;;;;;7.61;46.20;94080.19;5064851;28;20254;-77
2022/02/20 06:48:07;;;;;;;12.40;4.07;;;;;;;7.63;46.19;94084.16;5064473;28;20025;-78
2022/02/20 06:50:33;;;;;;;12.48;5.18;;;;;;;7.64;46.48;94083.06;5064534;28;20025;-77
2022/02/20 06:52:59;;;;;;;17.33;4.20;;;;;;;7.66;46.55;94084.66;5064599;28;20122;-77
2022/02/20 06:55:24;;;;;;;13.27;4.45;;;;;;;7.77;46.54;94078.88;5064574;28;20129;-77
2022/02/20 06:57:50;;;;;;;10.02;4.85;;;;;;;7.82;46.96;94097.38;5064282;28;20023;-77
2022/02/20 07:00:15;;;;;;;16.55;4.47;;;;;;;7.89;46.90;94090.91;5064414;28;20041;-80
2022/02/20 07:02:41;;;;;;;25.13;8.00;;;;;;;8.00;47.05;94082.50;5063331;28;20043;-81
2022/02/20 07:05:08;;;;;;;17.17;5.00;;;;;;;8.09;46.92;94084.50;5064653;28;20031;-81
2022/02/20 07:07:34;;;;;;;17.33;6.63;;;;;;;8.15;47.43;94084.09;5064178;28;20039;-81
2022/02/20 07:10:00;;;;;;;19.52;6.50;;;;;;;8.19;47.63;94069.16;5064448;28;20024;-81
2022/02/20 07:12:25;;;;;;;25.70;6.10;;;;;;;8.24;47.73;94085.03;5064204;28;20178;-81
2022/02/20 07:14:51;;;;;;;15.52;6.03;;;;;;;8.22;48.01;94086.38;5064423;28;20021;-81
2022/02/20 07:17:18;;;;;;;32.03;7.45;;;;;;;8.30;48.05;94074.28;5064315;28;20052;-81
2022/02/20 07:19:43;;;;;;;22.02;6.38;;;;;;;8.37;48.24;94066.75;5063951;28;20020;-79
2022/02/20 07:22:09;;;;;;;25.40;7.95;;;;;;;8.46;48.29;94053.59;5063794;28;20021;-78
2022/02/20 07:24:34;;;;;;;26.85;8.48;;;;;;;8.54;48.10;94047.59;5064416;28;20027;-78
2022/02/20 07:27:00;;;;;;;32.38;7.55;;;;;;;8.60;48.19;94041.09;5064086;28;20370;-78
2022/02/20 07:29:25;;;;;;;23.10;7.22;;;;;;;8.76;48.13;94030.97;5064295;28;20032;-79
2022/02/20 07:31:50;;;;;;;17.80;7.20;;;;;;;8.86;47.99;94036.06;5064165;28;20025;-79
2022/02/20 07:34:16;;;;;;;18.52;7.22;;;;;;;8.94;48.29;94034.59;5063743;28;20090;-80
2022/02/20 07:36:41;;;;;;;14.80;7.60;;;;;;;9.02;48.26;94033.88;5063589;28;20017;-77
2022/02/20 07:39:10;;;;;;;19.42;8.32;;;;;;;9.12;48.26;94036.31;5063806;28;20179;-77
2022/02/20 07:41:37;;;;;;;21.20;7.93;;;;;;;9.18;48.23;94029.00;5063654;28;20028;-78
2022/02/20 07:44:03;;;;;;;17.63;7.95;;;;;;;9.32;48.16;94045.75;5063494;28;20184;-77
2022/02/20 07:46:29;;;;;;;28.38;8.63;;;;;;;9.42;47.41;94053.50;5063524;28;20055;-78
2022/02/20 07:48:57;;;;;;;16.92;8.23;;;;;;;9.48;47.31;94053.34;5063575;28;20029;-78
2022/02/20 07:51:23;;;;;;;26.08;9.20;;;;;;;9.51;47.18;94050.88;5063723;28;20315;-78
2022/02/20 07:53:49;;;;;;;31.10;9.00;;;;;;;9.60;47.02;94048.28;5063394;28;20084;-78
2022/02/20 07:56:16;;;;;;;21.13;8.55;;;;;;;9.67;46.61;94045.19;5063330;28;20032;-76
2022/02/20 07:58:43;;;;;;;17.35;8.23;;;;;;;9.68;47.01;94031.59;5063327;28;20028;-78
2022/02/20 08:01:10;;;;;;;20.30;8.70;;;;;;;9.82;47.07;94021.66;5063275;28;20279;-78
2022/02/20 08:03:36;;;;;;;23.05;8.48;;;;;;;9.95;47.37;94008.59;5063161;28;20051;-77
2022/02/20 08:06:03;;;;;;;21.23;8.82;;;;;;;10.13;47.20;94007.59;5062940;28;20036;-77
2022/02/20 08:08:30;;;;;;;25.58;9.38;;;;;;;10.28;46.81;94002.94;5063194;28;20068;-75
2022/02/20 08:11:00;;;;;;;28.55;8.43;;;;;;;10.42;46.38;93999.13;5062505;28;20031;-77
2022/02/20 08:13:25;;;;;;;25.98;10.13;;;;;;;10.57;45.88;94011.25;5062704;28;20040;-76
2022/02/20 08:15:52;;;;;;;17.92;8.00;;;;;;;10.73;45.42;94006.28;5062690;28;20055;-75
2022/02/20 08:18:18;;;;;;;23.35;8.38;;;;;;;10.90;44.97;94020.75;5062740;28;20096;-75
2022/02/20 08:20:44;;;;;;;27.55;9.68;;;;;;;11.10;44.47;94024.72;5062768;28;20049;-75
2022/02/20 08:23:11;;;;;;;21.27;9.25;;;;;;;11.29;44.20;94013.75;5062762;28;20048;-84
2022/02/20 08:25:40;;;;;;;23.65;9.38;;;;;;;11.45;43.90;94015.63;5062608;28;20027;-76
2022/02/20 08:28:07;;;;;;;21.85;8.30;;;;;;;11.62;42.93;94017.53;5062661;28;20318;-77
2022/02/20 08:30:32;;;;;;;21.88;8.82;;;;;;;11.75;43.18;94010.44;5062884;28;20215;-75
2022/02/20 08:32:58;;;;;;;24.80;9.02;;;;;;;11.84;42.78;94005.06;5063103;28;20017;-79
2022/02/20 08:35:23;;;;;;;23.40;8.70;;;;;;;11.98;42.98;93995.00;5063685;28;20017;-81
2022/02/20 08:37:49;;;;;;;31.92;9.50;;;;;;;12.13;42.84;94003.63;5063008;28;20099;-85
2022/02/20 08:40:17;;;;;;;25.88;9.55;;;;;;;12.22;42.80;93996.38;5063589;28;20016;-83
2022/02/20 08:43:08;;;;;;;24.20;8.85;;;;;;;12.34;42.18;93985.81;5064878;28;20016;-86
2022/02/20 08:45:36;;;;;;;17.60;8.05;;;;;;;12.45;41.89;93981.66;5063216;28;20016;-86
2022/02/20 08:48:02;;;;;;;27.48;9.20;;;;;;;12.59;41.66;93986.78;5063240;28;20024;-86
2022/02/20 08:50:27;;;;;;;23.45;8.50;;;;;;;12.71;40.75;93988.78;5063237;28;20091;-86
2022/02/20 08:52:53;;;;;;;21.65;8.63;;;;;;;12.79;40.95;93973.78;5062145;28;20024;-86
2022/02/20 08:55:18;;;;;;;26.13;8.55;;;;;;;12.88;40.12;93977.19;5063352;28;20091;-87
2022/02/20 08:57:44;;;;;;;20.75;7.97;;;;;;;12.95;40.42;93976.69;5063149;28;20319;-86
2022/02/20 09:00:11;;;;;;;27.23;9.38;;;;;;;13.04;40.56;93977.41;5061917;28;20036;-87
2022/02/20 09:02:37;;;;;;;19.38;8.18;;;;;;;13.12;39.55;93975.78;5061866;28;20224;-86
2022/02/20 09:05:03;;;;;;;23.33;8.63;;;;;;;13.14;39.75;93978.91;5061978;28;20029;-89
2022/02/20 09:07:28;;;;;;;17.13;7.65;;;;;;;13.14;39.37;93984.28;5062321;28;20036;-88
2022/02/20 09:09:54;;;;;;;32.88;14.20;;;;;;;13.12;39.41;93997.19;5063590;28;20084;-88
2022/02/20 09:12:20;;;;;;;46.08;18.98;;;;;;;13.01;39.85;94002.16;5062218;28;20041;-88
2022/02/20 09:14:45;;;;;;;35.20;15.60;;;;;;;12.73;39.97;94009.84;5063673;28;20029;-88
2022/02/20 09:17:11;;;;;;;42.83;16.60;;;;;;;12.45;40.58;94000.38;5062861;28;20044;-88
2022/02/20 09:19:36;;;;;;;35.97;16.95;;;;;;;12.17;40.77;94007.22;5062656;28;20021;-88
2022/02/20 09:22:02;;;;;;;50.30;18.98;;;;;;;11.87;41.87;94011.69;5064116;28;20096;-88
2022/02/20 09:24:28;;;;;;;49.22;20.27;;;;;;;11.63;42.06;94012.97;5068085;28;20048;-88
2022/02/20 09:26:54;;;;;;;34.40;17.88;;;;;;;11.41;42.42;94008.56;5067947;28;20059;-88
2022/02/20 09:29:19;;;;;;;38.25;19.95;;;;;;;11.35;42.63;94015.94;5068039;28;20023;-88
2022/02/20 09:31:45;;;;;;;50.10;19.98;;;;;;;11.26;42.96;94001.81;5066632;28;20021;-88
2022/02/20 09:34:11;;;;;;;49.35;19.48;;;;;;;11.34;42.88;94001.03;5067749;28;20043;-88
2022/02/20 09:36:36;;;;;;;41.00;19.30;;;;;;;11.40;42.51;93994.44;5068647;28;20311;-88
2022/02/20 09:39:03;;;;;;;50.13;20.55;;;;;;;11.35;42.69;93996.47;5068021;28;20024;-89
2022/02/20 09:41:31;;;;;;;55.45;20.90;;;;;;;11.30;43.05;93992.09;5068248;28;20024;-88
2022/02/20 09:43:58;;;;;;;54.83;21.55;;;;;;;11.31;42.45;93987.53;5068414;28;20028;-88
2022/02/20 09:46:24;;;;;;;42.95;19.63;;;;;;;11.23;42.45;93981.09;5067969;28;20119;-88
2022/02/20 09:48:54;;;;;;;59.70;21.90;;;;;;;11.33;42.72;93978.09;5068169;28;20016;-89
2022/02/20 09:51:20;;;;;;;52.90;21.58;;;;;;;11.51;42.74;93983.44;5067267;28;20024;-89
2022/02/20 09:53:46;;;;;;;43.63;21.33;;;;;;;11.37;42.70;93988.94;5066087;28;20293;-87
2022/02/20 09:56:11;;;;;;;46.13;21.33;;;;;;;11.29;42.91;93987.06;5066594;28;20016;-89
2022/02/20 09:58:37;;;;;;;50.55;20.40;;;;;;;11.22;43.58;93987.53;5067411;28;20020;-90
2022/02/20 10:01:07;;;;;;;64.03;21.67;;;;;;;11.33;43.04;93988.00;5067253;28;20312;-89
2022/02/20 10:03:34;;;;;;;46.10;21.00;;;;;;;11.37;43.03;93984.38;5067209;28;20021;-88
2022/02/20 10:06:05;;;;;;;69.60;22.08;;;;;;;11.47;42.78;93985.94;5065668;28;20032;-89
2022/02/20 10:08:39;;;;;;;46.80;21.55;;;;;;;11.44;42.61;93973.25;5066800;28;20017;-89
2022/02/20 10:11:23;;;;;;;57.60;22.38;;;;;;;11.34;43.19;93981.56;5066704;28;20025;-88
2022/02/20 10:13:54;;;;;;;39.10;20.27;;;;;;;11.27;42.96;93971.34;5066752;28;20037;-87
2022/02/20 10:16:26;;;;;;;57.17;23.67;;;;;;;11.32;42.82;93970.44;5066140;28;20025;-87
2022/02/20 10:18:53;;;;;;;52.63;24.45;;;;;;;11.29;42.90;93968.38;5066326;28;20021;-88
2022/02/20 10:21:23;;;;;;;54.75;23.67;;;;;;;11.23;43.89;93973.09;5065098;28;20204;-88
2022/02/20 10:23:50;;;;;;;59.13;23.35;;;;;;;11.21;43.89;93961.94;5064987;28;20043;-87
2022/02/20 10:26:20;;;;;;;47.50;21.85;;;;;;;11.20;43.75;93955.06;5064679;28;20176;-87
2022/02/20 10:29:18;;;;;;;54.63;20.73;;;;;;;11.39;43.66;93944.03;5065853;28;20021;-87
2022/02/20 10:31:51;;;;;;;38.58;20.25;;;;;;;11.41;43.62;93939.94;5061429;28;20036;-87
2022/02/20 10:34:20;;;;;;;36.92;16.83;;;;;;;11.47;43.20;93931.78;5065653;28;20016;-87
2022/02/20 10:36:48;;;;;;;46.47;17.70;;;;;;;11.39;43.41;93936.03;5065768;28;20341;-87
2022/02/20 10:39:21;;;;;;;32.38;13.20;;;;;;;11.48;42.50;93923.47;5065758;28;20039;-87
2022/02/20 10:41:47;;;;;;;24.75;11.27;;;;;;;11.57;42.12;93915.44;5065542;28;20024;-86
2022/02/20 10:44:13;;;;;;;30.08;14.27;;;;;;;11.70;43.47;93911.78;5065686;28;20017;-86
2022/02/20 10:46:39;;;;;;;37.95;15.05;;;;;;;11.90;42.92;93901.56;5065728;28;20017;-87
2022/02/20 10:49:05;;;;;;;28.48;15.73;;;;;;;12.13;43.07;93888.72;5066508;28;20108;-88
2022/02/20 10:51:39;;;;;;;45.50;17.48;;;;;;;12.37;43.11;93893.50;5066136;28;20012;-87
2022/02/20 10:54:05;;;;;;;42.17;18.50;;;;;;;12.55;42.18;93894.97;5064956;28;20021;-74
2022/02/20 10:56:41;;;;;;;25.83;13.82;;;;;;;12.82;40.52;93884.88;5064261;28;20016;-74
2022/02/20 10:59:07;;;;;;;32.30;15.50;;;;;;;12.98;40.40;93885.84;5064380;28;20029;-74
2022/02/20 11:01:33;;;;;;;31.10;14.23;;;;;;;13.28;39.27;93875.06;5064135;28;20048;-74
2022/02/20 11:04:24;;;;;;;31.00;14.50;;;;;;;13.59;39.49;93871.16;5063942;28;20025;-74
2022/02/20 11:06:50;;;;;;;27.63;14.52;;;;;;;13.84;39.41;93867.41;5062782;28;20037;-74
2022/02/20 11:09:16;;;;;;;34.63;15.93;;;;;;;14.16;37.90;93877.59;5064049;28;20051;-76
2022/02/20 11:11:49;;;;;;;33.00;13.88;;;;;;;14.29;37.36;93878.38;5064072;28;20048;-74
2022/02/20 11:14:18;;;;;;;34.47;15.40;;;;;;;14.27;37.02;93867.19;5064032;28;20021;-74
2022/02/20 11:16:51;;;;;;;28.42;13.93;;;;;;;14.33;37.83;93877.38;5063770;28;20092;-74
2022/02/20 11:19:27;;;;;;;32.92;14.38;;;;;;;14.42;37.20;93863.84;5063853;28;20069;-74
2022/02/20 11:21:58;;;;;;;40.30;14.55;;;;;;;14.42;36.80;93866.53;5063578;28;20021;-74
2022/02/20 11:24:29;;;;;;;35.57;14.30;;;;;;;14.36;36.88;93865.19;5064119;28;20009;-74